createdAt,value
2022-12-28T00:01:47.891Z,82.75
2022-12-28T00:04:17.618Z,82.74
2022-12-28T00:06:45.597Z,82.93
2022-12-28T00:09:13.239Z,84.48
2022-12-28T00:11:40.326Z,84.11
2022-12-28T00:14:07.578Z,84.13
2022-12-28T00:16:42.167Z,83.83
2022-12-28T00:19:15.912Z,84.43
2022-12-28T00:21:43.747Z,84.93
2022-12-28T00:24:22.897Z,84.60
2022-12-28T00:26:50.278Z,84.59
2022-12-28T00:29:18.236Z,85.06
2022-12-28T00:31:46.383Z,84.37
2022-12-28T00:34:13.595Z,84.69
2022-12-28T00:37:11.740Z,85.70
2022-12-28T00:39:29.314Z,86.33
2022-12-28T00:41:56.325Z,85.28
2022-12-28T00:44:23.360Z,86.47
2022-12-28T00:46:50.533Z,86.55
2022-12-28T00:49:18.433Z,86.14
2022-12-28T00:51:45.513Z,85.07
2022-12-28T00:54:12.704Z,85.64
2022-12-28T00:56:41.658Z,85.02
2022-12-28T00:59:09.242Z,85.42
2022-12-28T01:01:36.714Z,85.29
2022-12-28T01:04:03.991Z,85.14
2022-12-28T01:06:31.253Z,85.82
2022-12-28T01:08:58.364Z,85.46
2022-12-28T01:11:29.286Z,85.85
2022-12-28T01:13:58.903Z,86.37
2022-12-28T01:16:29.865Z,86.81
2022-12-28T01:19:01.081Z,86.14
2022-12-28T01:21:30.627Z,86.10
2022-12-28T01:24:00.145Z,86.40
2022-12-28T01:26:28.311Z,85.24
2022-12-28T01:28:56.087Z,85.51
2022-12-28T01:31:23.508Z,84.75
2022-12-28T01:33:51.341Z,84.52
2022-12-28T01:36:29.902Z,83.93
2022-12-28T01:39:00.078Z,83.77
2022-12-28T01:41:29.486Z,82.13
2022-12-28T01:43:56.378Z,83.06
2022-12-28T01:46:50.081Z,83.20
2022-12-28T01:49:27.608Z,82.90
2022-12-28T01:52:03.830Z,83.80
2022-12-28T01:54:39.990Z,83.58
2022-12-28T01:57:07.463Z,84.28
2022-12-28T01:59:39.952Z,83.09
2022-12-28T02:02:07.536Z,82.53
2022-12-28T02:04:34.885Z,82.83
2022-12-28T02:07:01.798Z,82.32
2022-12-28T02:09:37.137Z,82.98
2022-12-28T02:12:04.203Z,83.35
2022-12-28T02:14:31.691Z,82.47
2022-12-28T02:16:58.675Z,83.28
2022-12-28T02:19:47.396Z,83.60
2022-12-28T02:22:43.749Z,84.53
2022-12-28T02:25:14.092Z,84.96
2022-12-28T02:27:41.105Z,85.57
2022-12-28T02:30:08.619Z,84.78
2022-12-28T02:32:41.461Z,85.10
2022-12-28T02:35:34.452Z,85.26
2022-12-28T02:38:10.395Z,85.32
2022-12-28T02:40:46.102Z,85.54
2022-12-28T02:43:13.681Z,85.67
2022-12-28T02:46:05.165Z,86.23
2022-12-28T02:49:01.664Z,85.62
2022-12-28T02:52:07.022Z,85.81
2022-12-28T02:55:21.697Z,85.36
2022-12-28T02:58:19.520Z,85.48
2022-12-28T03:01:09.449Z,85.08
2022-12-28T03:04:09.705Z,84.94
2022-12-28T03:07:13.677Z,84.03
2022-12-28T03:10:05.402Z,84.15
2022-12-28T03:12:41.081Z,84.43
2022-12-28T03:15:10.742Z,84.88
2022-12-28T03:18:00.474Z,85.11
2022-12-28T03:20:50.789Z,84.42
2022-12-28T03:23:40.025Z,84.01
2022-12-28T03:26:29.801Z,83.84
2022-12-28T03:29:18.396Z,83.18
2022-12-28T03:31:45.687Z,82.85
2022-12-28T03:34:15.209Z,82.46
2022-12-28T03:36:55.767Z,81.15
2022-12-28T03:39:47.904Z,80.86
2022-12-28T03:42:46.382Z,80.29
2022-12-28T03:45:45.643Z,80.20
2022-12-28T03:48:14.661Z,79.71
2022-12-28T03:50:44.299Z,78.75
2022-12-28T03:53:18.395Z,79.18
2022-12-28T03:55:45.751Z,78.99
2022-12-28T03:58:16.322Z,79.73
2022-12-28T04:00:43.231Z,79.35
2022-12-28T04:03:10.245Z,79.30
2022-12-28T04:05:37.453Z,79.46
2022-12-28T04:08:04.579Z,78.82
2022-12-28T04:10:31.487Z,79.82
2022-12-28T04:12:58.429Z,79.61
2022-12-28T04:15:30.673Z,79.97
2022-12-28T04:18:01.353Z,79.65
2022-12-28T04:20:28.319Z,79.28
2022-12-28T04:22:55.410Z,79.65
2022-12-28T04:25:23.091Z,79.87
2022-12-28T04:27:50.239Z,79.29
2022-12-28T04:30:35.444Z,77.86
2022-12-28T04:33:02.494Z,78.11
2022-12-28T04:35:29.497Z,78.67
2022-12-28T04:37:57.038Z,78.61
2022-12-28T04:40:23.929Z,79.64
2022-12-28T04:42:50.848Z,78.85
2022-12-28T04:45:21.999Z,78.51
2022-12-28T04:47:49.541Z,79.27
2022-12-28T04:50:16.779Z,79.01
2022-12-28T04:52:43.793Z,78.76
2022-12-28T04:55:31.568Z,78.40
2022-12-28T04:57:57.600Z,78.71
2022-12-28T05:00:24.550Z,78.67
2022-12-28T05:02:51.502Z,78.44
2022-12-28T05:05:18.400Z,78.53
2022-12-28T05:07:45.313Z,78.95
2022-12-28T05:10:12.179Z,79.01
2022-12-28T05:12:39.178Z,79.00
2022-12-28T05:15:06.985Z,79.93
2022-12-28T05:17:34.074Z,79.54
2022-12-28T05:20:01.055Z,79.91
2022-12-28T05:22:28.141Z,79.09
2022-12-28T05:24:55.074Z,77.97
2022-12-28T05:27:22.015Z,77.56
2022-12-28T05:29:48.967Z,76.96
2022-12-28T05:32:16.056Z,76.28
2022-12-28T05:34:43.027Z,76.56
2022-12-28T05:37:10.076Z,76.34
2022-12-28T05:39:36.946Z,76.23
2022-12-28T05:42:04.634Z,76.08
2022-12-28T05:44:31.637Z,76.06
2022-12-28T05:46:58.637Z,75.52
2022-12-28T05:49:25.561Z,75.31
2022-12-28T05:51:52.414Z,76.09
2022-12-28T05:54:19.398Z,75.68
2022-12-28T05:56:46.701Z,75.91
2022-12-28T05:59:13.805Z,75.50
2022-12-28T06:01:43.900Z,76.06
2022-12-28T06:04:17.144Z,76.61
2022-12-28T06:06:45.656Z,76.97
2022-12-28T06:09:12.694Z,75.40
2022-12-28T06:11:40.084Z,74.83
2022-12-28T06:14:07.501Z,74.36
2022-12-28T06:16:37.740Z,74.51
2022-12-28T06:19:06.895Z,74.25
2022-12-28T06:21:36.151Z,73.17
2022-12-28T06:24:04.053Z,72.61
2022-12-28T06:26:32.750Z,72.85
2022-12-28T06:29:02.001Z,73.17
2022-12-28T06:31:32.203Z,71.50
2022-12-28T06:34:00.657Z,71.66
2022-12-28T06:36:33.154Z,70.97
2022-12-28T06:39:01.675Z,70.24
2022-12-28T06:41:29.647Z,69.69
2022-12-28T06:43:58.106Z,69.57
2022-12-28T06:46:27.783Z,68.54
2022-12-28T06:48:54.913Z,67.76
2022-12-28T06:51:25.562Z,67.20
2022-12-28T06:53:53.359Z,67.47
2022-12-28T06:56:26.876Z,68.64
2022-12-28T06:59:00.530Z,68.26
2022-12-28T07:01:41.732Z,66.76
2022-12-28T07:04:10.003Z,67.37
2022-12-28T07:06:40.346Z,67.68
2022-12-28T07:09:11.138Z,67.68
2022-12-28T07:11:38.434Z,67.32
2022-12-28T07:14:06.007Z,67.18
2022-12-28T07:19:00.124Z,65.55
2022-12-28T07:21:32.822Z,65.96
2022-12-28T07:23:59.889Z,65.71
2022-12-28T07:26:29.477Z,66.07
2022-12-28T07:28:57.651Z,64.86
2022-12-28T07:31:30.289Z,64.56
2022-12-28T07:34:00.422Z,64.19
2022-12-28T07:36:30.162Z,63.77
2022-12-28T07:38:57.692Z,64.40
2022-12-28T07:41:30.362Z,63.04
2022-12-28T07:43:58.900Z,63.11
2022-12-28T07:46:31.753Z,62.33
2022-12-28T07:48:58.679Z,60.60
2022-12-28T07:51:31.069Z,62.04
2022-12-28T07:53:59.606Z,58.99
2022-12-28T07:56:28.061Z,59.62
2022-12-28T07:58:57.839Z,58.98
2022-12-28T08:01:27.897Z,58.64
2022-12-28T08:03:57.450Z,58.32
2022-12-28T08:06:26.121Z,58.16
2022-12-28T08:08:55.530Z,57.85
2022-12-28T08:11:25.159Z,58.32
2022-12-28T08:13:54.997Z,55.32
2022-12-28T08:16:24.550Z,54.16
2022-12-28T08:18:51.517Z,54.12
2022-12-28T08:21:23.046Z,54.76
2022-12-28T08:23:50.800Z,55.05
2022-12-28T08:26:20.957Z,56.04
2022-12-28T08:28:50.377Z,55.60
2022-12-28T08:31:20.332Z,54.99
2022-12-28T08:33:47.989Z,55.47
2022-12-28T08:36:15.419Z,55.22
2022-12-28T08:38:44.326Z,55.80
2022-12-28T08:41:13.729Z,54.48
2022-12-28T08:43:40.804Z,55.69
2022-12-28T08:46:13.484Z,54.92
2022-12-28T08:48:40.702Z,55.89
2022-12-28T08:51:12.018Z,53.37
2022-12-28T08:53:39.510Z,52.06
2022-12-28T08:56:16.223Z,52.26
2022-12-28T08:58:44.979Z,53.26
2022-12-28T09:01:13.203Z,53.09
2022-12-28T09:03:44.869Z,52.99
2022-12-28T09:06:15.198Z,53.12
2022-12-28T09:08:42.764Z,51.83
2022-12-28T09:11:13.747Z,52.46
2022-12-28T09:13:41.235Z,51.10
2022-12-28T09:16:17.327Z,48.98
2022-12-28T09:18:45.787Z,49.64
2022-12-28T09:21:16.099Z,48.47
2022-12-28T09:23:44.755Z,48.86
2022-12-28T09:26:13.122Z,47.92
2022-12-28T09:28:45.205Z,48.25
2022-12-28T09:31:12.234Z,51.77
2022-12-28T09:34:33.616Z,50.59
2022-12-28T09:36:45.336Z,48.86
2022-12-28T09:39:17.174Z,50.86
2022-12-28T09:42:02.316Z,48.32
2022-12-28T10:17:40.927Z,45.88
2022-12-28T10:20:15.952Z,44.56
2022-12-28T10:22:49.836Z,44.25
2022-12-28T10:25:23.357Z,45.61
2022-12-28T10:27:51.033Z,45.33
2022-12-28T10:30:21.481Z,44.50
2022-12-28T10:33:02.727Z,45.25
2022-12-28T10:35:42.429Z,44.49
2022-12-28T10:38:29.445Z,42.67
2022-12-28T10:41:03.980Z,43.94
2022-12-28T10:43:37.217Z,42.29
2022-12-28T10:46:07.697Z,42.97
2022-12-28T10:48:38.298Z,42.00
2022-12-28T10:51:16.200Z,41.45
2022-12-28T10:53:51.340Z,42.09
2022-12-28T10:56:28.563Z,45.08
2022-12-28T10:59:10.933Z,45.24
2022-12-28T11:01:38.552Z,43.16
2022-12-28T11:04:15.990Z,43.00
2022-12-28T11:07:02.017Z,43.23
2022-12-28T11:09:35.267Z,43.44
2022-12-28T11:12:23.727Z,44.68
2022-12-28T11:14:52.534Z,44.69
2022-12-28T11:17:27.327Z,44.59
2022-12-28T11:20:07.029Z,44.73
2022-12-28T11:22:34.547Z,45.61
2022-12-28T11:25:02.512Z,44.24
2022-12-28T11:27:29.424Z,44.29
2022-12-28T11:29:56.400Z,43.66
2022-12-28T11:32:26.138Z,45.16
2022-12-28T11:34:55.846Z,43.64
2022-12-28T11:37:22.792Z,45.00
2022-12-28T11:39:51.814Z,44.92
2022-12-28T11:42:40.038Z,43.68
2022-12-28T11:45:17.258Z,44.23
2022-12-28T11:47:45.826Z,45.62
2022-12-28T11:50:34.820Z,44.10
2022-12-28T11:53:04.725Z,42.18
2022-12-28T11:55:58.315Z,43.62
2022-12-28T11:58:31.221Z,41.41
2022-12-28T12:01:00.273Z,42.36
2022-12-28T12:03:59.520Z,42.11
2022-12-28T12:06:45.022Z,42.24
2022-12-28T12:09:28.263Z,43.39
2022-12-28T12:12:03.976Z,41.07
2022-12-28T12:14:38.582Z,40.95
2022-12-28T12:17:07.931Z,40.61
2022-12-28T12:19:39.681Z,40.30
2022-12-28T12:22:28.834Z,40.65
2022-12-28T12:25:02.698Z,40.54
2022-12-28T12:27:46.797Z,40.65
2022-12-28T12:30:15.903Z,40.56
2022-12-28T12:32:48.837Z,40.48
2022-12-28T12:35:20.028Z,40.63
2022-12-28T12:37:56.922Z,40.54
2022-12-28T12:40:50.485Z,41.06
2022-12-28T12:43:47.601Z,40.76
2022-12-28T12:46:18.616Z,39.66
2022-12-28T12:49:13.216Z,41.39
2022-12-28T12:52:03.563Z,40.01
2022-12-28T12:55:17.214Z,41.20
2022-12-28T12:57:53.772Z,40.60
2022-12-28T13:00:22.650Z,40.69
2022-12-28T13:03:00.105Z,40.78
2022-12-28T13:05:30.170Z,41.25
2022-12-28T13:07:59.304Z,41.72
2022-12-28T13:10:40.967Z,41.46
2022-12-28T13:13:15.407Z,40.84
2022-12-28T13:15:44.128Z,40.98
2022-12-28T13:18:44.540Z,41.56
2022-12-28T13:21:12.544Z,41.89
2022-12-28T13:23:44.773Z,41.81
2022-12-28T13:26:14.749Z,41.53
2022-12-28T13:29:11.121Z,42.24
2022-12-28T13:31:40.065Z,42.05
2022-12-28T13:34:19.021Z,42.29
2022-12-28T13:36:48.976Z,41.74
2022-12-28T13:39:18.145Z,41.71
2022-12-28T13:41:56.537Z,41.93
2022-12-28T13:44:29.733Z,42.24
2022-12-28T13:47:03.180Z,42.37
2022-12-28T13:49:36.981Z,42.71
2022-12-28T13:52:09.191Z,43.23
2022-12-28T13:54:37.894Z,42.92
2022-12-28T13:57:44.562Z,43.70
2022-12-28T13:59:56.001Z,43.15
2022-12-28T14:02:24.508Z,43.26
2022-12-28T14:04:53.815Z,43.33
2022-12-28T14:07:24.320Z,43.15
2022-12-28T14:09:52.381Z,43.55
2022-12-28T14:12:20.063Z,43.97
2022-12-28T14:14:48.215Z,44.32
2022-12-28T14:17:15.920Z,44.58
2022-12-28T14:19:46.171Z,44.98
2022-12-28T14:22:37.143Z,45.36
2022-12-28T14:25:23.058Z,46.02
2022-12-28T14:28:03.821Z,46.15
2022-12-28T14:30:37.082Z,46.63
2022-12-28T14:33:22.298Z,46.28
2022-12-28T14:35:54.222Z,47.51
2022-12-28T14:38:25.448Z,46.94
2022-12-28T14:40:58.341Z,47.45
2022-12-28T14:43:28.619Z,46.70
2022-12-28T14:46:04.920Z,47.66
2022-12-28T14:48:37.493Z,47.65
2022-12-28T14:51:23.287Z,47.43
2022-12-28T14:54:10.357Z,47.70
2022-12-28T14:56:37.437Z,48.36
2022-12-28T14:59:06.308Z,48.42
2022-12-28T15:01:45.532Z,48.02
2022-12-28T15:04:26.853Z,49.62
2022-12-28T15:06:54.864Z,52.04
2022-12-28T15:09:22.226Z,50.87
2022-12-28T15:11:49.115Z,50.29
2022-12-28T15:14:16.142Z,50.75
2022-12-28T15:16:44.576Z,50.21
2022-12-28T15:19:11.620Z,50.82
2022-12-28T15:21:38.636Z,51.57
2022-12-28T15:24:05.928Z,52.24
2022-12-28T15:26:32.801Z,52.48
2022-12-28T15:29:05.636Z,51.85
2022-12-28T15:31:32.574Z,52.41
2022-12-28T15:33:59.562Z,52.14
2022-12-28T15:36:26.489Z,51.71
2022-12-28T15:38:56.519Z,52.45
2022-12-28T15:41:41.867Z,52.37
2022-12-28T15:44:08.755Z,52.55
2022-12-28T15:46:35.826Z,52.01
2022-12-28T15:49:03.919Z,52.56
2022-12-28T15:51:30.901Z,53.24
2022-12-28T15:53:57.885Z,52.67
2022-12-28T15:56:28.170Z,53.78
2022-12-28T15:58:56.779Z,54.37
2022-12-28T16:01:25.435Z,53.43
2022-12-28T16:03:53.119Z,53.46
2022-12-28T16:06:21.051Z,54.01
2022-12-28T16:08:48.310Z,53.03
2022-12-28T16:11:18.013Z,54.14
2022-12-28T16:13:54.336Z,55.28
2022-12-28T16:16:22.531Z,54.79
2022-12-28T16:18:50.590Z,54.67
2022-12-28T16:21:17.563Z,54.14
2022-12-28T16:23:45.543Z,54.25
2022-12-28T16:26:14.088Z,53.56
2022-12-28T16:28:41.354Z,54.05
2022-12-28T16:31:08.584Z,54.68
2022-12-28T16:33:36.142Z,53.79
2022-12-28T16:36:10.909Z,53.91
2022-12-28T16:38:37.796Z,53.83
2022-12-28T16:41:05.803Z,54.17
2022-12-28T16:43:32.680Z,54.65
2022-12-28T16:46:05.957Z,54.11
2022-12-28T16:48:33.749Z,54.67
2022-12-28T16:51:01.282Z,54.76
2022-12-28T16:53:29.348Z,54.76
2022-12-28T16:56:00.862Z,55.63
2022-12-28T16:58:28.892Z,55.12
2022-12-28T17:00:56.680Z,54.86
2022-12-28T17:03:25.069Z,54.91
2022-12-28T17:05:52.958Z,55.04
2022-12-28T17:08:19.986Z,54.97
2022-12-28T17:10:46.887Z,55.15
2022-12-28T17:13:13.938Z,54.91
2022-12-28T17:15:41.197Z,54.69
2022-12-28T17:18:08.381Z,54.69
2022-12-28T17:20:38.915Z,55.50
2022-12-28T17:23:06.851Z,58.05
2022-12-28T17:25:35.476Z,58.75
2022-12-28T17:28:03.418Z,57.93
2022-12-28T17:30:30.486Z,56.57
2022-12-28T17:32:57.661Z,56.91
2022-12-28T17:35:24.700Z,57.06
2022-12-28T17:37:51.686Z,56.65
2022-12-28T17:40:19.783Z,56.66
2022-12-28T17:42:46.912Z,56.94
2022-12-28T17:45:13.901Z,57.41
2022-12-28T17:47:40.813Z,57.33
2022-12-28T17:50:08.575Z,58.20
2022-12-28T17:52:35.562Z,58.11
2022-12-28T17:55:03.766Z,58.33
2022-12-28T17:57:35.348Z,58.77
2022-12-28T18:00:06.648Z,58.35
2022-12-28T18:02:39.331Z,58.58
2022-12-28T18:05:07.054Z,59.53
2022-12-28T18:07:34.364Z,59.52
2022-12-28T18:10:01.282Z,60.47
2022-12-28T18:12:28.231Z,60.22
2022-12-28T18:14:55.413Z,60.75
2022-12-28T18:17:23.477Z,60.42
2022-12-28T18:19:53.671Z,61.81
2022-12-28T18:22:23.088Z,60.74
2022-12-28T18:24:50.823Z,62.17
2022-12-28T18:27:17.985Z,62.72
2022-12-28T18:29:45.413Z,63.33
2022-12-28T18:32:12.338Z,62.62
2022-12-28T18:34:39.404Z,62.58
2022-12-28T18:37:06.719Z,62.63
2022-12-28T18:39:34.607Z,63.23
2022-12-28T18:42:03.131Z,64.27
2022-12-28T18:44:30.104Z,64.27
2022-12-28T18:46:57.113Z,65.10
2022-12-28T18:49:24.817Z,65.33
2022-12-28T18:51:51.808Z,65.96
2022-12-28T18:54:18.894Z,65.34
2022-12-28T18:56:45.798Z,65.91
2022-12-28T18:59:12.720Z,66.10
2022-12-28T19:04:29.357Z,66.51
2022-12-28T19:06:56.910Z,66.47
2022-12-28T19:09:23.905Z,66.72
2022-12-28T19:11:52.906Z,66.71
2022-12-28T19:14:19.949Z,67.06
2022-12-28T19:16:47.029Z,67.40
2022-12-28T19:19:17.079Z,66.89
2022-12-28T19:21:44.877Z,67.69
2022-12-28T19:24:17.868Z,68.13
2022-12-28T19:26:46.305Z,68.08
2022-12-28T19:29:14.420Z,68.58
2022-12-28T19:31:41.427Z,68.57
2022-12-28T19:34:09.249Z,68.23
2022-12-28T19:36:36.430Z,68.30
2022-12-28T19:39:03.495Z,68.36
2022-12-28T19:41:30.387Z,68.07
2022-12-28T19:43:57.364Z,68.21
2022-12-28T19:46:31.562Z,68.67
2022-12-28T19:49:03.501Z,68.48
2022-12-28T19:51:32.286Z,68.05
2022-12-28T19:54:02.355Z,68.48
2022-12-28T19:56:29.503Z,67.79
2022-12-28T19:59:01.447Z,67.94
2022-12-28T20:01:30.393Z,67.46
2022-12-28T20:03:58.373Z,68.17
2022-12-28T20:06:27.820Z,67.83
2022-12-28T20:08:57.521Z,67.54
2022-12-28T20:11:25.199Z,67.76
2022-12-28T20:13:54.332Z,67.31
2022-12-28T20:16:21.875Z,67.22
2022-12-28T20:18:51.242Z,67.26
2022-12-28T20:21:20.459Z,67.45
2022-12-28T20:23:49.541Z,67.34
2022-12-28T20:26:17.600Z,67.51
2022-12-28T20:28:45.419Z,66.88
2022-12-28T20:31:14.453Z,67.13
2022-12-28T20:33:42.532Z,68.11
2022-12-28T20:36:13.679Z,67.57
2022-12-28T20:38:40.784Z,67.67
2022-12-28T20:41:31.786Z,66.97
2022-12-28T20:44:00.102Z,67.66
2022-12-28T20:46:27.607Z,67.57
2022-12-28T20:48:55.249Z,67.73
2022-12-28T20:51:22.371Z,67.53
2022-12-28T20:53:49.346Z,67.87
2022-12-28T20:56:16.476Z,67.79
2022-12-28T20:58:43.411Z,67.69
2022-12-28T21:01:13.212Z,68.66
2022-12-28T21:03:40.703Z,68.33
2022-12-28T21:06:08.164Z,68.21
2022-12-28T21:08:35.370Z,68.33
2022-12-28T21:11:03.003Z,68.60
2022-12-28T21:13:30.137Z,67.99
2022-12-28T21:15:57.210Z,68.39
2022-12-28T21:18:24.461Z,68.51
2022-12-28T21:20:55.814Z,68.87
2022-12-28T21:23:22.971Z,67.94
2022-12-28T21:25:49.919Z,67.73
2022-12-28T21:28:16.959Z,67.74
2022-12-28T21:30:43.940Z,67.57
2022-12-28T21:33:10.939Z,68.14
2022-12-28T21:35:37.894Z,67.44
2022-12-28T21:38:05.588Z,68.23
2022-12-28T21:40:33.180Z,68.18
2022-12-28T21:43:00.019Z,68.48
2022-12-28T21:45:26.933Z,68.08
2022-12-28T21:47:53.855Z,68.68
2022-12-28T21:50:20.779Z,68.94
2022-12-28T21:52:47.717Z,68.66
2022-12-28T21:55:33.196Z,68.28
2022-12-28T21:58:01.172Z,69.09
2022-12-28T22:00:46.866Z,69.11
2022-12-28T22:03:32.364Z,68.65
2022-12-28T22:06:06.697Z,68.96
2022-12-28T22:08:52.895Z,69.12
2022-12-28T22:11:38.616Z,68.98
2022-12-28T22:14:07.095Z,69.51
2022-12-28T22:16:35.327Z,69.29
2022-12-28T22:19:03.909Z,69.53
2022-12-28T22:21:31.468Z,69.73
2022-12-28T22:23:58.645Z,69.86
2022-12-28T22:26:25.582Z,69.46
2022-12-28T22:28:52.441Z,70.12
2022-12-28T22:31:20.477Z,70.21
2022-12-28T22:33:47.510Z,69.61
2022-12-28T22:36:17.114Z,69.97
2022-12-28T22:38:44.345Z,69.90
2022-12-28T22:41:11.457Z,70.19
2022-12-28T22:43:38.416Z,70.04
2022-12-28T22:46:10.284Z,70.70
2022-12-28T22:48:37.849Z,70.86
2022-12-28T22:51:10.405Z,70.65
2022-12-28T22:53:38.349Z,71.05
2022-12-28T22:56:08.255Z,71.00
2022-12-28T22:58:35.171Z,70.74
2022-12-28T23:01:10.979Z,71.17
2022-12-28T23:03:43.227Z,71.10
2022-12-28T23:06:12.006Z,70.85
2022-12-28T23:08:39.072Z,71.67
2022-12-28T23:11:27.944Z,71.80
2022-12-28T23:13:54.886Z,71.52
2022-12-28T23:16:21.934Z,71.20
2022-12-28T23:19:07.346Z,71.32
2022-12-28T23:21:52.999Z,71.73
2022-12-28T23:24:38.723Z,71.70
2022-12-28T23:27:20.945Z,71.71
2022-12-28T23:29:47.858Z,71.68
2022-12-28T23:32:14.900Z,71.36
2022-12-28T23:34:41.852Z,71.35
2022-12-28T23:37:08.893Z,71.46
2022-12-28T23:39:35.919Z,71.33
2022-12-28T23:42:02.851Z,71.32
2022-12-28T23:44:29.821Z,71.90
2022-12-28T23:46:59.298Z,71.67
2022-12-28T23:49:26.821Z,72.30
2022-12-28T23:51:53.800Z,72.23
2022-12-28T23:54:21.015Z,72.37
2022-12-28T23:56:49.263Z,73.07
2022-12-28T23:59:16.608Z,72.62
